PWSweather.com
Personal Weather Stations
Station Observations
KG5EIU
Vista Oaks, St Paul, TX 75098

Vista OaksSt Paul, TX 75098

Lat: 33.0430204, Lon: -96.5552108

Elevation: 569

Station Type: Davis Vantage Pro2

https://davidcappello.com/weather/

Latest ConditionsUpdated 10:05:12 PM CDT Monday, Mar 25, 2019
Currently Today's Max Today's Min Today's Average
Temperature 60.4°F15.8°C 69.8°F21.0°C 52.7°F11.5°C 62.6°F17.0°C
Dew Point 49.8°F9.9°C 63.7°F17.6°C 48.9°F9.4°C 52.8°F11.6°C
Winds 3.0 mph N4.8 kmh N 13.0 mph -20.9 kmh - - 4.7 mph 7.6 kmh
Wind Gusts -- -- - -
Humidity 68% 93% 51% 72%
Pressure 30.21 in1023.0 mb 30.21 in1023.0 mb 29.96 in1014.6 mb -
Precipitation - 0.07 in1.8 mm - -
Hour Temp Dew Point Humidity Winds Wind Gusts Pressure Precip Precip Rate Daily Precip Total
10:05 PM 60.4°F15.8°C 49.8°F9.9°C 68% 3.0 mph N4.8 kmh N -- 30.21 in1023.0 mb 0.01 in0.3 mm 0.00 in0.0 mm 0.07 in1.8 mm
10:00 PM 60.5°F15.8°C 49.8°F9.9°C 68% 1.0 mph N1.6 kmh N -- 30.21 in1023.0 mb 0.01 in0.3 mm 0.00 in0.0 mm 0.07 in1.8 mm
09:55 PM 60.7°F15.9°C 50.0°F10.0°C 68% Calm Calm -- 30.21 in1023.0 mb 0.01 in0.3 mm 0.00 in0.0 mm 0.07 in1.8 mm
09:50 PM 61.0°F16.1°C 50.4°F10.2°C 68% 2.0 mph N3.2 kmh N -- 30.21 in1023.0 mb 0.01 in0.3 mm 0.00 in0.0 mm 0.07 in1.8 mm
09:45 PM 61.2°F16.2°C 50.2°F10.1°C 67% 1.0 mph N1.6 kmh N -- 30.21 in1023.0 mb 0.01 in0.3 mm 0.00 in0.0 mm 0.07 in1.8 mm
09:40 PM 61.4°F16.3°C 50.4°F10.2°C 67% 1.0 mph N1.6 kmh N -- 30.20 in1022.7 mb 0.01 in0.3 mm 0.00 in0.0 mm 0.07 in1.8 mm
09:35 PM 61.6°F16.4°C 50.0°F10.0°C 66% 2.0 mph NNW3.2 kmh NNW -- 30.20 in1022.7 mb 0.01 in0.3 mm 0.00 in0.0 mm 0.07 in1.8 mm
09:30 PM 61.7°F16.5°C 50.2°F10.1°C 66% 1.0 mph N1.6 kmh N -- 30.20 in1022.7 mb 0.01 in0.3 mm 0.00 in0.0 mm 0.07 in1.8 mm
09:25 PM 62.0°F16.7°C 50.2°F10.1°C 65% 2.0 mph N3.2 kmh N -- 30.20 in1022.7 mb 0.01 in0.3 mm 0.00 in0.0 mm 0.07 in1.8 mm
09:20 PM 62.3°F16.8°C 50.4°F10.2°C 65% 2.0 mph N3.2 kmh N -- 30.20 in1022.7 mb 0.01 in0.3 mm 0.12 in3.0 mm 0.07 in1.8 mm
09:15 PM 62.5°F16.9°C 50.0°F10.0°C 64% 2.0 mph N3.2 kmh N -- 30.19 in1022.4 mb 0.00 in0.0 mm 0.00 in0.0 mm 0.06 in1.5 mm
09:10 PM 62.7°F17.1°C 50.0°F10.0°C 63% Calm Calm -- 30.19 in1022.4 mb 0.00 in0.0 mm 0.00 in0.0 mm 0.06 in1.5 mm
09:05 PM 62.9°F17.2°C 50.2°F10.1°C 63% Calm Calm -- 30.19 in1022.4 mb 0.00 in0.0 mm 0.00 in0.0 mm 0.06 in1.5 mm
09:00 PM 63.0°F17.2°C 50.2°F10.1°C 63% Calm Calm -- 30.19 in1022.4 mb 0.00 in0.0 mm 0.00 in0.0 mm 0.06 in1.5 mm
08:55 PM 63.1°F17.3°C 50.4°F10.2°C 63% Calm Calm -- 30.18 in1022.0 mb 0.00 in0.0 mm 0.00 in0.0 mm 0.06 in1.5 mm
08:50 PM 63.3°F17.4°C 50.5°F10.3°C 63% Calm Calm -- 30.18 in1022.0 mb 0.00 in0.0 mm 0.00 in0.0 mm 0.06 in1.5 mm
08:45 PM 63.4°F17.4°C 50.5°F10.3°C 63% Calm Calm -- 30.18 in1022.0 mb 0.00 in0.0 mm 0.00 in0.0 mm 0.06 in1.5 mm
08:40 PM 63.5°F17.5°C 50.2°F10.1°C 62% Calm Calm -- 30.18 in1022.0 mb 0.00 in0.0 mm 0.00 in0.0 mm 0.06 in1.5 mm
08:35 PM 63.7°F17.6°C 50.4°F10.2°C 62% Calm Calm -- 30.18 in1022.0 mb 0.00 in0.0 mm 0.00 in0.0 mm 0.06 in1.5 mm
08:30 PM 63.9°F17.7°C 50.5°F10.3°C 62% Calm Calm -- 30.18 in1022.0 mb 0.00 in0.0 mm 0.00 in0.0 mm 0.06 in1.5 mm
08:25 PM 64.0°F17.8°C 50.7°F10.4°C 62% Calm Calm -- 30.17 in1021.7 mb 0.00 in0.0 mm 0.00 in0.0 mm 0.06 in1.5 mm
08:20 PM 64.3°F17.9°C 50.5°F10.3°C 61% Calm Calm -- 30.17 in1021.7 mb 0.00 in0.0 mm 0.00 in0.0 mm 0.06 in1.5 mm
08:15 PM 64.5°F18.1°C 50.9°F10.5°C 61% Calm Calm -- 30.17 in1021.7 mb 0.00 in0.0 mm 0.00 in0.0 mm 0.06 in1.5 mm
08:10 PM 64.8°F18.2°C 50.5°F10.3°C 60% Calm Calm -- 30.17 in1021.7 mb 0.00 in0.0 mm 0.00 in0.0 mm 0.06 in1.5 mm
08:05 PM 65.0°F18.3°C 50.7°F10.4°C 60% Calm Calm -- 30.17 in1021.7 mb 0.00 in0.0 mm 0.00 in0.0 mm 0.06 in1.5 mm
08:00 PM 65.3°F18.5°C 50.5°F10.3°C 59% Calm Calm -- 30.17 in1021.7 mb 0.00 in0.0 mm 0.00 in0.0 mm 0.06 in1.5 mm
07:55 PM 65.5°F18.6°C 50.7°F10.4°C 59% Calm Calm -- 30.17 in1021.7 mb 0.00 in0.0 mm 0.00 in0.0 mm 0.06 in1.5 mm
07:50 PM 65.8°F18.8°C 51.1°F10.6°C 59% Calm Calm -- 30.17 in1021.7 mb 0.00 in0.0 mm 0.00 in0.0 mm 0.06 in1.5 mm
07:45 PM 66.1°F18.9°C 50.9°F10.5°C 58% Calm Calm -- 30.17 in1021.7 mb 0.00 in0.0 mm 0.00 in0.0 mm 0.06 in1.5 mm
07:40 PM 66.5°F19.2°C 50.9°F10.5°C 57% Calm Calm -- 30.17 in1021.7 mb 0.00 in0.0 mm 0.00 in0.0 mm 0.06 in1.5 mm
07:35 PM 67.0°F19.4°C 50.7°F10.4°C 56% 1.0 mph N1.6 kmh N -- 30.16 in1021.3 mb 0.00 in0.0 mm 0.00 in0.0 mm 0.06 in1.5 mm
07:30 PM 67.4°F19.7°C 50.7°F10.4°C 55% Calm Calm -- 30.16 in1021.3 mb 0.00 in0.0 mm 0.00 in0.0 mm 0.06 in1.5 mm
07:25 PM 67.7°F19.8°C 50.4°F10.2°C 54% 5.0 mph N8.0 kmh N -- 30.16 in1021.3 mb 0.00 in0.0 mm 0.00 in0.0 mm 0.06 in1.5 mm
07:20 PM 68.1°F20.1°C 50.9°F10.5°C 54% 4.0 mph N6.4 kmh N -- 30.16 in1021.3 mb 0.00 in0.0 mm 0.00 in0.0 mm 0.06 in1.5 mm
07:15 PM 68.3°F20.2°C 51.1°F10.6°C 54% 3.0 mph NNW4.8 kmh NNW -- 30.16 in1021.3 mb 0.00 in0.0 mm 0.00 in0.0 mm 0.06 in1.5 mm
07:10 PM 68.5°F20.3°C 51.3°F10.7°C 54% 4.0 mph N6.4 kmh N -- 30.16 in1021.3 mb 0.00 in0.0 mm 0.00 in0.0 mm 0.06 in1.5 mm
07:05 PM 68.5°F20.3°C 50.7°F10.4°C 53% 2.0 mph NNW3.2 kmh NNW -- 30.16 in1021.3 mb 0.00 in0.0 mm 0.00 in0.0 mm 0.06 in1.5 mm
07:00 PM 68.7°F20.4°C 50.9°F10.5°C 53% 5.0 mph N8.0 kmh N -- 30.16 in1021.3 mb 0.00 in0.0 mm 0.00 in0.0 mm 0.06 in1.5 mm
06:55 PM 68.9°F20.5°C 51.1°F10.6°C 53% 7.0 mph NNE11.3 kmh NNE -- 30.16 in1021.3 mb 0.00 in0.0 mm 0.00 in0.0 mm 0.06 in1.5 mm
06:50 PM 69.0°F20.6°C 51.3°F10.7°C 53% 2.0 mph N3.2 kmh N -- 30.16 in1021.3 mb 0.00 in0.0 mm 0.00 in0.0 mm 0.06 in1.5 mm
06:45 PM 69.0°F20.6°C 51.3°F10.7°C 53% 1.0 mph NNW1.6 kmh NNW -- 30.16 in1021.3 mb 0.00 in0.0 mm 0.00 in0.0 mm 0.06 in1.5 mm
06:40 PM 69.1°F20.6°C 51.3°F10.7°C 53% 6.0 mph NW9.7 kmh NW -- 30.16 in1021.3 mb 0.00 in0.0 mm 0.00 in0.0 mm 0.06 in1.5 mm
06:35 PM 69.1°F20.6°C 50.7°F10.4°C 52% 7.0 mph NNW11.3 kmh NNW -- 30.15 in1021.0 mb 0.00 in0.0 mm 0.00 in0.0 mm 0.06 in1.5 mm
06:30 PM 69.2°F20.7°C 51.4°F10.8°C 53% 5.0 mph N8.0 kmh N -- 30.15 in1021.0 mb 0.00 in0.0 mm 0.00 in0.0 mm 0.06 in1.5 mm
06:25 PM 69.3°F20.7°C 51.4°F10.8°C 53% 7.0 mph NW11.3 kmh NW -- 30.15 in1021.0 mb 0.00 in0.0 mm 0.00 in0.0 mm 0.06 in1.5 mm
06:20 PM 69.5°F20.8°C 51.6°F10.9°C 53% 2.0 mph NNW3.2 kmh NNW -- 30.15 in1021.0 mb 0.00 in0.0 mm 0.00 in0.0 mm 0.06 in1.5 mm
06:15 PM 69.5°F20.8°C 51.6°F10.9°C 53% 4.0 mph N6.4 kmh N -- 30.15 in1021.0 mb 0.00 in0.0 mm 0.00 in0.0 mm 0.06 in1.5 mm
06:10 PM 69.5°F20.8°C 51.6°F10.9°C 53% 6.0 mph NNE9.7 kmh NNE -- 30.15 in1021.0 mb 0.00 in0.0 mm 0.00 in0.0 mm 0.06 in1.5 mm
06:05 PM 69.5°F20.8°C 51.6°F10.9°C 53% 4.0 mph NNE6.4 kmh NNE -- 30.15 in1021.0 mb 0.00 in0.0 mm 0.00 in0.0 mm 0.06 in1.5 mm
06:00 PM 69.5°F20.8°C 51.6°F10.9°C 53% 2.0 mph N3.2 kmh N -- 30.15 in1021.0 mb 0.00 in0.0 mm 0.00 in0.0 mm 0.06 in1.5 mm
05:55 PM 69.4°F20.8°C 51.6°F10.9°C 53% 3.0 mph N4.8 kmh N -- 30.15 in1021.0 mb 0.00 in0.0 mm 0.00 in0.0 mm 0.06 in1.5 mm
05:50 PM 69.7°F20.9°C 51.3°F10.7°C 52% 5.0 mph N8.0 kmh N -- 30.15 in1021.0 mb 0.00 in0.0 mm 0.00 in0.0 mm 0.06 in1.5 mm
05:45 PM 69.7°F20.9°C 50.7°F10.4°C 51% 4.0 mph NW6.4 kmh NW -- 30.15 in1021.0 mb 0.00 in0.0 mm 0.00 in0.0 mm 0.06 in1.5 mm
05:40 PM 69.8°F21.0°C 52.3°F11.3°C 54% 4.0 mph N6.4 kmh N -- 30.15 in1021.0 mb 0.00 in0.0 mm 0.00 in0.0 mm 0.06 in1.5 mm
05:35 PM 69.6°F20.9°C 52.2°F11.2°C 54% 5.0 mph N8.0 kmh N -- 30.15 in1021.0 mb 0.00 in0.0 mm 0.00 in0.0 mm 0.06 in1.5 mm
05:30 PM 69.3°F20.7°C 52.0°F11.1°C 54% 4.0 mph N6.4 kmh N -- 30.15 in1021.0 mb 0.00 in0.0 mm 0.00 in0.0 mm 0.06 in1.5 mm
05:25 PM 69.4°F20.8°C 51.6°F10.9°C 53% 6.0 mph NE9.7 kmh NE -- 30.15 in1021.0 mb 0.00 in0.0 mm 0.00 in0.0 mm 0.06 in1.5 mm
05:20 PM 69.6°F20.9°C 51.8°F11.0°C 53% 6.0 mph NNW9.7 kmh NNW -- 30.15 in1021.0 mb 0.00 in0.0 mm 0.00 in0.0 mm 0.06 in1.5 mm
05:15 PM 69.4°F20.8°C 52.0°F11.1°C 54% 8.0 mph N12.9 kmh N -- 30.15 in1021.0 mb 0.00 in0.0 mm 0.00 in0.0 mm 0.06 in1.5 mm
05:10 PM 69.2°F20.7°C 52.0°F11.1°C 54% 6.0 mph N9.7 kmh N -- 30.15 in1021.0 mb 0.00 in0.0 mm 0.00 in0.0 mm 0.06 in1.5 mm
05:05 PM 69.2°F20.7°C 51.4°F10.8°C 53% 9.0 mph N14.5 kmh N -- 30.15 in1021.0 mb 0.00 in0.0 mm 0.00 in0.0 mm 0.06 in1.5 mm
05:00 PM 69.3°F20.7°C 52.0°F11.1°C 54% 7.0 mph NNW11.3 kmh NNW -- 30.15 in1021.0 mb 0.00 in0.0 mm 0.00 in0.0 mm 0.06 in1.5 mm
04:55 PM 69.2°F20.7°C 51.4°F10.8°C 53% 6.0 mph NE9.7 kmh NE -- 30.14 in1020.7 mb 0.00 in0.0 mm 0.00 in0.0 mm 0.06 in1.5 mm
04:50 PM 69.8°F21.0°C 51.4°F10.8°C 52% 5.0 mph N8.0 kmh N -- 30.15 in1021.0 mb 0.00 in0.0 mm 0.00 in0.0 mm 0.06 in1.5 mm
04:45 PM 69.7°F20.9°C 51.8°F11.0°C 53% 7.0 mph NW11.3 kmh NW -- 30.15 in1021.0 mb 0.00 in0.0 mm 0.00 in0.0 mm 0.06 in1.5 mm
04:40 PM 69.4°F20.8°C 52.0°F11.1°C 54% 2.0 mph NW3.2 kmh NW -- 30.15 in1021.0 mb 0.00 in0.0 mm 0.00 in0.0 mm 0.06 in1.5 mm
04:35 PM 69.2°F20.7°C 51.4°F10.8°C 53% 4.0 mph N6.4 kmh N -- 30.15 in1021.0 mb 0.00 in0.0 mm 0.00 in0.0 mm 0.06 in1.5 mm
04:30 PM 68.9°F20.5°C 52.0°F11.1°C 55% 2.0 mph NNW3.2 kmh NNW -- 30.15 in1021.0 mb 0.00 in0.0 mm 0.00 in0.0 mm 0.06 in1.5 mm
04:25 PM 69.0°F20.6°C 51.3°F10.7°C 53% 8.0 mph N12.9 kmh N -- 30.15 in1021.0 mb 0.00 in0.0 mm 0.00 in0.0 mm 0.06 in1.5 mm
04:20 PM 68.9°F20.5°C 51.6°F10.9°C 54% 7.0 mph N11.3 kmh N -- 30.15 in1021.0 mb 0.00 in0.0 mm 0.00 in0.0 mm 0.06 in1.5 mm
04:15 PM 69.0°F20.6°C 52.2°F11.2°C 55% 9.0 mph N14.5 kmh N -- 30.16 in1021.3 mb 0.00 in0.0 mm 0.00 in0.0 mm 0.06 in1.5 mm
04:10 PM 68.7°F20.4°C 51.4°F10.8°C 54% 9.0 mph NNE14.5 kmh NNE -- 30.15 in1021.0 mb 0.00 in0.0 mm 0.00 in0.0 mm 0.06 in1.5 mm
04:05 PM 68.7°F20.4°C 51.8°F11.0°C 55% 10.0 mph N16.1 kmh N -- 30.16 in1021.3 mb 0.00 in0.0 mm 0.00 in0.0 mm 0.06 in1.5 mm
04:00 PM 68.4°F20.2°C 52.0°F11.1°C 56% 5.0 mph NNW8.0 kmh NNW -- 30.16 in1021.3 mb 0.00 in0.0 mm 0.00 in0.0 mm 0.06 in1.5 mm
03:55 PM 68.6°F20.3°C 52.2°F11.2°C 56% 10.0 mph N16.1 kmh N -- 30.16 in1021.3 mb 0.00 in0.0 mm 0.00 in0.0 mm 0.06 in1.5 mm
03:50 PM 68.7°F20.4°C 51.8°F11.0°C 55% 9.0 mph N14.5 kmh N -- 30.16 in1021.3 mb 0.00 in0.0 mm 0.00 in0.0 mm 0.06 in1.5 mm
03:45 PM 68.6°F20.3°C 51.8°F11.0°C 55% 5.0 mph N8.0 kmh N -- 30.16 in1021.3 mb 0.00 in0.0 mm 0.00 in0.0 mm 0.06 in1.5 mm
03:40 PM 68.5°F20.3°C 51.8°F11.0°C 55% 6.0 mph NE9.7 kmh NE -- 30.16 in1021.3 mb 0.00 in0.0 mm 0.00 in0.0 mm 0.06 in1.5 mm
03:35 PM 68.3°F20.2°C 51.6°F10.9°C 55% 7.0 mph NNE11.3 kmh NNE -- 30.16 in1021.3 mb 0.00 in0.0 mm 0.00 in0.0 mm 0.06 in1.5 mm
03:30 PM 68.3°F20.2°C 51.1°F10.6°C 54% 10.0 mph N16.1 kmh N -- 30.16 in1021.3 mb 0.00 in0.0 mm 0.00 in0.0 mm 0.06 in1.5 mm
03:25 PM 68.5°F20.3°C 51.8°F11.0°C 55% 9.0 mph N14.5 kmh N -- 30.16 in1021.3 mb 0.00 in0.0 mm 0.00 in0.0 mm 0.06 in1.5 mm
03:20 PM 68.4°F20.2°C 51.6°F10.9°C 55% 3.0 mph N4.8 kmh N -- 30.16 in1021.3 mb 0.00 in0.0 mm 0.00 in0.0 mm 0.06 in1.5 mm
03:15 PM 68.0°F20.0°C 51.6°F10.9°C 56% 8.0 mph NE12.9 kmh NE -- 30.16 in1021.3 mb 0.00 in0.0 mm 0.00 in0.0 mm 0.06 in1.5 mm
03:10 PM 68.3°F20.2°C 52.5°F11.4°C 57% 10.0 mph N16.1 kmh N -- 30.16 in1021.3 mb 0.00 in0.0 mm 0.00 in0.0 mm 0.06 in1.5 mm
03:05 PM 68.5°F20.3°C 52.7°F11.5°C 57% 7.0 mph NW11.3 kmh NW -- 30.17 in1021.7 mb 0.00 in0.0 mm 0.00 in0.0 mm 0.06 in1.5 mm
03:00 PM 68.2°F20.1°C 52.9°F11.6°C 58% 7.0 mph N11.3 kmh N -- 30.17 in1021.7 mb 0.00 in0.0 mm 0.00 in0.0 mm 0.06 in1.5 mm
02:55 PM 68.6°F20.3°C 53.2°F11.8°C 58% 8.0 mph NW12.9 kmh NW -- 30.17 in1021.7 mb 0.00 in0.0 mm 0.00 in0.0 mm 0.06 in1.5 mm
02:50 PM 68.5°F20.3°C 52.2°F11.2°C 56% 5.0 mph N8.0 kmh N -- 30.17 in1021.7 mb 0.00 in0.0 mm 0.00 in0.0 mm 0.06 in1.5 mm
02:45 PM 68.3°F20.2°C 53.1°F11.7°C 58% 5.0 mph N8.0 kmh N -- 30.17 in1021.7 mb 0.00 in0.0 mm 0.00 in0.0 mm 0.06 in1.5 mm
02:40 PM 68.1°F20.1°C 53.8°F12.1°C 60% 8.0 mph N12.9 kmh N -- 30.17 in1021.7 mb 0.00 in0.0 mm 0.00 in0.0 mm 0.06 in1.5 mm
02:35 PM 68.1°F20.1°C 53.8°F12.1°C 60% 8.0 mph N12.9 kmh N -- 30.17 in1021.7 mb 0.00 in0.0 mm 0.00 in0.0 mm 0.06 in1.5 mm
02:30 PM 68.2°F20.1°C 52.9°F11.6°C 58% 8.0 mph NNE12.9 kmh NNE -- 30.17 in1021.7 mb 0.00 in0.0 mm 0.00 in0.0 mm 0.06 in1.5 mm
02:25 PM 68.1°F20.1°C 53.8°F12.1°C 60% 10.0 mph NNE16.1 kmh NNE -- 30.18 in1022.0 mb 0.00 in0.0 mm 0.00 in0.0 mm 0.06 in1.5 mm
02:20 PM 67.7°F19.8°C 52.3°F11.3°C 58% 6.0 mph NNW9.7 kmh NNW -- 30.18 in1022.0 mb 0.00 in0.0 mm 0.00 in0.0 mm 0.06 in1.5 mm
02:15 PM 67.7°F19.8°C 53.8°F12.1°C 61% 10.0 mph N16.1 kmh N -- 30.18 in1022.0 mb 0.00 in0.0 mm 0.00 in0.0 mm 0.06 in1.5 mm
02:10 PM 67.4°F19.7°C 52.7°F11.5°C 59% 8.0 mph N12.9 kmh N -- 30.18 in1022.0 mb 0.00 in0.0 mm 0.00 in0.0 mm 0.06 in1.5 mm
02:05 PM 67.2°F19.6°C 52.0°F11.1°C 58% 9.0 mph NNW14.5 kmh NNW -- 30.18 in1022.0 mb 0.00 in0.0 mm 0.00 in0.0 mm 0.06 in1.5 mm
02:00 PM 67.1°F19.5°C 52.7°F11.5°C 60% 4.0 mph WNW6.4 kmh WNW -- 30.18 in1022.0 mb 0.01 in0.3 mm 0.00 in0.0 mm 0.06 in1.5 mm
01:55 PM 67.4°F19.7°C 52.7°F11.5°C 59% 8.0 mph NW12.9 kmh NW -- 30.18 in1022.0 mb 0.01 in0.3 mm 0.00 in0.0 mm 0.06 in1.5 mm
01:50 PM 67.4°F19.7°C 53.6°F12.0°C 61% 5.0 mph NNE8.0 kmh NNE -- 30.18 in1022.0 mb 0.01 in0.3 mm 0.00 in0.0 mm 0.06 in1.5 mm
01:45 PM 67.2°F19.6°C 53.4°F11.9°C 61% 8.0 mph NNE12.9 kmh NNE -- 30.18 in1022.0 mb 0.01 in0.3 mm 0.00 in0.0 mm 0.06 in1.5 mm
01:40 PM 66.8°F19.3°C 52.3°F11.3°C 60% 6.0 mph N9.7 kmh N -- 30.18 in1022.0 mb 0.01 in0.3 mm 0.00 in0.0 mm 0.06 in1.5 mm
01:35 PM 66.6°F19.2°C 53.6°F12.0°C 63% 2.0 mph N3.2 kmh N -- 30.19 in1022.4 mb 0.01 in0.3 mm 0.00 in0.0 mm 0.06 in1.5 mm
01:30 PM 66.4°F19.1°C 52.5°F11.4°C 61% 9.0 mph N14.5 kmh N -- 30.19 in1022.4 mb 0.01 in0.3 mm 0.00 in0.0 mm 0.06 in1.5 mm
01:25 PM 66.3°F19.1°C 52.5°F11.4°C 61% 5.0 mph NNW8.0 kmh NNW -- 30.19 in1022.4 mb 0.01 in0.3 mm 0.00 in0.0 mm 0.06 in1.5 mm
01:20 PM 66.7°F19.3°C 51.4°F10.8°C 58% 6.0 mph NE9.7 kmh NE -- 30.19 in1022.4 mb 0.01 in0.3 mm 0.00 in0.0 mm 0.06 in1.5 mm
01:15 PM 66.4°F19.1°C 52.0°F11.1°C 60% 7.0 mph N11.3 kmh N -- 30.19 in1022.4 mb 0.01 in0.3 mm 0.00 in0.0 mm 0.06 in1.5 mm
01:10 PM 66.1°F18.9°C 52.2°F11.2°C 61% 5.0 mph N8.0 kmh N -- 30.19 in1022.4 mb 0.01 in0.3 mm 0.00 in0.0 mm 0.06 in1.5 mm
01:05 PM 65.7°F18.7°C 52.7°F11.5°C 63% 6.0 mph NNE9.7 kmh NNE -- 30.19 in1022.4 mb 0.01 in0.3 mm 0.12 in3.0 mm 0.06 in1.5 mm
01:00 PM 65.8°F18.8°C 52.0°F11.1°C 61% 8.0 mph NW12.9 kmh NW -- 30.19 in1022.4 mb 0.00 in0.0 mm 0.00 in0.0 mm 0.05 in1.3 mm
12:55 PM 65.5°F18.6°C 51.6°F10.9°C 61% 10.0 mph N16.1 kmh N -- 30.19 in1022.4 mb 0.00 in0.0 mm 0.00 in0.0 mm 0.05 in1.3 mm
12:50 PM 65.4°F18.6°C 52.2°F11.2°C 62% 11.0 mph NNE17.7 kmh NNE -- 30.19 in1022.4 mb 0.00 in0.0 mm 0.00 in0.0 mm 0.05 in1.3 mm
12:45 PM 65.5°F18.6°C 52.5°F11.4°C 63% 10.0 mph NE16.1 kmh NE -- 30.19 in1022.4 mb 0.00 in0.0 mm 0.00 in0.0 mm 0.05 in1.3 mm
12:40 PM 65.3°F18.5°C 52.9°F11.6°C 64% 6.0 mph NW9.7 kmh NW -- 30.19 in1022.4 mb 0.00 in0.0 mm 0.00 in0.0 mm 0.05 in1.3 mm
12:35 PM 65.1°F18.4°C 52.7°F11.5°C 64% 9.0 mph N14.5 kmh N -- 30.20 in1022.7 mb 0.00 in0.0 mm 0.00 in0.0 mm 0.05 in1.3 mm
12:30 PM 65.0°F18.3°C 52.5°F11.4°C 64% 5.0 mph NNW8.0 kmh NNW -- 30.19 in1022.4 mb 0.00 in0.0 mm 0.00 in0.0 mm 0.05 in1.3 mm
12:25 PM 64.8°F18.2°C 51.8°F11.0°C 63% 8.0 mph N12.9 kmh N -- 30.20 in1022.7 mb 0.00 in0.0 mm 0.00 in0.0 mm 0.05 in1.3 mm
12:20 PM 64.9°F18.3°C 52.5°F11.4°C 64% 9.0 mph NNE14.5 kmh NNE -- 30.20 in1022.7 mb 0.00 in0.0 mm 0.00 in0.0 mm 0.05 in1.3 mm
12:15 PM 64.9°F18.3°C 53.2°F11.8°C 66% 6.0 mph NW9.7 kmh NW -- 30.20 in1022.7 mb 0.00 in0.0 mm 0.00 in0.0 mm 0.05 in1.3 mm
12:10 PM 64.3°F17.9°C 52.7°F11.5°C 66% 5.0 mph NE8.0 kmh NE -- 30.20 in1022.7 mb 0.00 in0.0 mm 0.00 in0.0 mm 0.05 in1.3 mm
12:05 PM 64.0°F17.8°C 52.9°F11.6°C 67% 4.0 mph NW6.4 kmh NW -- 30.20 in1022.7 mb 0.00 in0.0 mm 0.00 in0.0 mm 0.05 in1.3 mm
12:00 PM 64.0°F17.8°C 52.0°F11.1°C 65% 7.0 mph NE11.3 kmh NE -- 30.20 in1022.7 mb 0.00 in0.0 mm 0.00 in0.0 mm 0.05 in1.3 mm
11:55 AM 63.9°F17.7°C 52.7°F11.5°C 67% 6.0 mph NNW9.7 kmh NNW -- 30.19 in1022.4 mb 0.00 in0.0 mm 0.00 in0.0 mm 0.05 in1.3 mm
11:50 AM 63.7°F17.6°C 52.2°F11.2°C 66% 9.0 mph N14.5 kmh N -- 30.19 in1022.4 mb 0.00 in0.0 mm 0.00 in0.0 mm 0.05 in1.3 mm
11:45 AM 63.6°F17.6°C 51.6°F10.9°C 65% 10.0 mph NNE16.1 kmh NNE -- 30.19 in1022.4 mb 0.00 in0.0 mm 0.00 in0.0 mm 0.05 in1.3 mm
11:40 AM 63.7°F17.6°C 52.2°F11.2°C 66% 7.0 mph NE11.3 kmh NE -- 30.20 in1022.7 mb 0.00 in0.0 mm 0.00 in0.0 mm 0.05 in1.3 mm
11:35 AM 63.7°F17.6°C 51.6°F10.9°C 65% 4.0 mph NNE6.4 kmh NNE -- 30.19 in1022.4 mb 0.00 in0.0 mm 0.00 in0.0 mm 0.05 in1.3 mm
11:30 AM 63.4°F17.4°C 52.5°F11.4°C 68% 6.0 mph N9.7 kmh N -- 30.19 in1022.4 mb 0.00 in0.0 mm 0.00 in0.0 mm 0.05 in1.3 mm
11:25 AM 63.1°F17.3°C 51.3°F10.7°C 65% 6.0 mph N9.7 kmh N -- 30.19 in1022.4 mb 0.00 in0.0 mm 0.00 in0.0 mm 0.05 in1.3 mm
11:20 AM 62.9°F17.2°C 51.1°F10.6°C 65% 6.0 mph NNE9.7 kmh NNE -- 30.19 in1022.4 mb 0.00 in0.0 mm 0.00 in0.0 mm 0.05 in1.3 mm
11:15 AM 62.8°F17.1°C 51.6°F10.9°C 67% 8.0 mph N12.9 kmh N -- 30.19 in1022.4 mb 0.00 in0.0 mm 0.00 in0.0 mm 0.05 in1.3 mm
11:10 AM 62.6°F17.0°C 51.4°F10.8°C 67% 4.0 mph N6.4 kmh N -- 30.19 in1022.4 mb 0.00 in0.0 mm 0.00 in0.0 mm 0.05 in1.3 mm
11:05 AM 62.7°F17.1°C 52.0°F11.1°C 68% 6.0 mph NE9.7 kmh NE -- 30.19 in1022.4 mb 0.00 in0.0 mm 0.00 in0.0 mm 0.05 in1.3 mm
11:00 AM 62.2°F16.8°C 51.6°F10.9°C 68% 9.0 mph NE14.5 kmh NE -- 30.18 in1022.0 mb 0.00 in0.0 mm 0.00 in0.0 mm 0.05 in1.3 mm
10:55 AM 62.0°F16.7°C 51.4°F10.8°C 68% 9.0 mph NE14.5 kmh NE -- 30.18 in1022.0 mb 0.00 in0.0 mm 0.00 in0.0 mm 0.05 in1.3 mm
10:50 AM 61.7°F16.5°C 50.5°F10.3°C 67% 9.0 mph ENE14.5 kmh ENE -- 30.18 in1022.0 mb 0.00 in0.0 mm 0.00 in0.0 mm 0.05 in1.3 mm
10:45 AM 61.6°F16.4°C 50.9°F10.5°C 68% 6.0 mph NNE9.7 kmh NNE -- 30.18 in1022.0 mb 0.00 in0.0 mm 0.00 in0.0 mm 0.05 in1.3 mm
10:40 AM 61.3°F16.3°C 51.1°F10.6°C 69% 10.0 mph NE16.1 kmh NE -- 30.18 in1022.0 mb 0.00 in0.0 mm 0.00 in0.0 mm 0.05 in1.3 mm
10:35 AM 61.2°F16.2°C 51.3°F10.7°C 70% 9.0 mph NE14.5 kmh NE -- 30.17 in1021.7 mb 0.00 in0.0 mm 0.00 in0.0 mm 0.05 in1.3 mm
10:30 AM 60.9°F16.1°C 51.8°F11.0°C 72% 7.0 mph NE11.3 kmh NE -- 30.17 in1021.7 mb 0.00 in0.0 mm 0.00 in0.0 mm 0.05 in1.3 mm
10:25 AM 60.5°F15.8°C 52.5°F11.4°C 75% 6.0 mph NNE9.7 kmh NNE -- 30.17 in1021.7 mb 0.00 in0.0 mm 0.00 in0.0 mm 0.05 in1.3 mm
10:20 AM 60.3°F15.7°C 50.9°F10.5°C 71% 10.0 mph ENE16.1 kmh ENE -- 30.17 in1021.7 mb 0.00 in0.0 mm 0.00 in0.0 mm 0.05 in1.3 mm
10:15 AM 59.9°F15.5°C 51.6°F10.9°C 74% 6.0 mph N9.7 kmh N -- 30.16 in1021.3 mb 0.00 in0.0 mm 0.00 in0.0 mm 0.05 in1.3 mm
10:10 AM 59.7°F15.4°C 51.1°F10.6°C 73% 6.0 mph NNE9.7 kmh NNE -- 30.16 in1021.3 mb 0.00 in0.0 mm 0.00 in0.0 mm 0.05 in1.3 mm
10:05 AM 59.6°F15.3°C 51.3°F10.7°C 74% 7.0 mph NNE11.3 kmh NNE -- 30.16 in1021.3 mb 0.00 in0.0 mm 0.00 in0.0 mm 0.05 in1.3 mm
10:00 AM 59.3°F15.2°C 50.7°F10.4°C 73% 11.0 mph NNE17.7 kmh NNE -- 30.16 in1021.3 mb 0.01 in0.3 mm 0.00 in0.0 mm 0.05 in1.3 mm
09:55 AM 59.3°F15.2°C 50.7°F10.4°C 73% 13.0 mph N20.9 kmh N -- 30.16 in1021.3 mb 0.01 in0.3 mm 0.00 in0.0 mm 0.05 in1.3 mm
09:50 AM 59.1°F15.1°C 51.3°F10.7°C 75% 5.0 mph N8.0 kmh N -- 30.15 in1021.0 mb 0.01 in0.3 mm 0.00 in0.0 mm 0.05 in1.3 mm
09:45 AM 58.8°F14.9°C 51.3°F10.7°C 76% 6.0 mph NNE9.7 kmh NNE -- 30.15 in1021.0 mb 0.01 in0.3 mm 0.00 in0.0 mm 0.05 in1.3 mm
09:40 AM 58.5°F14.7°C 50.9°F10.5°C 76% 10.0 mph NNE16.1 kmh NNE -- 30.15 in1021.0 mb 0.01 in0.3 mm 0.00 in0.0 mm 0.05 in1.3 mm
09:35 AM 58.4°F14.7°C 50.9°F10.5°C 76% 8.0 mph N12.9 kmh N -- 30.15 in1021.0 mb 0.01 in0.3 mm 0.00 in0.0 mm 0.05 in1.3 mm
09:30 AM 58.3°F14.6°C 50.7°F10.4°C 76% 6.0 mph NE9.7 kmh NE -- 30.14 in1020.7 mb 0.01 in0.3 mm 0.00 in0.0 mm 0.05 in1.3 mm
09:25 AM 57.9°F14.4°C 50.7°F10.4°C 77% 7.0 mph NE11.3 kmh NE -- 30.14 in1020.7 mb 0.01 in0.3 mm 0.00 in0.0 mm 0.05 in1.3 mm
09:20 AM 57.7°F14.3°C 51.3°F10.7°C 79% 9.0 mph N14.5 kmh N -- 30.14 in1020.7 mb 0.01 in0.3 mm 0.00 in0.0 mm 0.05 in1.3 mm
09:15 AM 57.5°F14.2°C 50.7°F10.4°C 78% 9.0 mph NNE14.5 kmh NNE -- 30.14 in1020.7 mb 0.01 in0.3 mm 0.00 in0.0 mm 0.05 in1.3 mm
09:10 AM 57.2°F14.0°C 51.1°F10.6°C 80% 8.0 mph NE12.9 kmh NE -- 30.13 in1020.3 mb 0.01 in0.3 mm 0.00 in0.0 mm 0.05 in1.3 mm
09:05 AM 56.8°F13.8°C 50.4°F10.2°C 79% 7.0 mph NNE11.3 kmh NNE -- 30.13 in1020.3 mb 0.01 in0.3 mm 0.12 in3.0 mm 0.05 in1.3 mm
09:00 AM 56.6°F13.7°C 50.5°F10.3°C 80% 6.0 mph N9.7 kmh N -- 30.13 in1020.3 mb 0.00 in0.0 mm 0.00 in0.0 mm 0.04 in1.0 mm
08:55 AM 56.3°F13.5°C 50.2°F10.1°C 80% 6.0 mph N9.7 kmh N -- 30.12 in1020.0 mb 0.00 in0.0 mm 0.00 in0.0 mm 0.04 in1.0 mm
08:50 AM 56.1°F13.4°C 50.4°F10.2°C 81% 8.0 mph N12.9 kmh N -- 30.12 in1020.0 mb 0.00 in0.0 mm 0.00 in0.0 mm 0.04 in1.0 mm
08:45 AM 55.9°F13.3°C 50.5°F10.3°C 82% 4.0 mph N6.4 kmh N -- 30.12 in1020.0 mb 0.00 in0.0 mm 0.00 in0.0 mm 0.04 in1.0 mm
08:40 AM 55.5°F13.1°C 50.2°F10.1°C 82% 5.0 mph N8.0 kmh N -- 30.12 in1020.0 mb 0.00 in0.0 mm 0.00 in0.0 mm 0.04 in1.0 mm
08:35 AM 55.3°F12.9°C 49.8°F9.9°C 82% 8.0 mph NNE12.9 kmh NNE -- 30.12 in1020.0 mb 0.00 in0.0 mm 0.00 in0.0 mm 0.04 in1.0 mm
08:30 AM 55.0°F12.8°C 50.0°F10.0°C 83% 5.0 mph N8.0 kmh N -- 30.11 in1019.6 mb 0.00 in0.0 mm 0.00 in0.0 mm 0.04 in1.0 mm
08:25 AM 54.6°F12.6°C 50.0°F10.0°C 84% 5.0 mph N8.0 kmh N -- 30.11 in1019.6 mb 0.00 in0.0 mm 0.00 in0.0 mm 0.04 in1.0 mm
08:20 AM 54.2°F12.3°C 49.6°F9.8°C 85% 3.0 mph N4.8 kmh N -- 30.11 in1019.6 mb 0.00 in0.0 mm 0.00 in0.0 mm 0.04 in1.0 mm
08:15 AM 53.9°F12.2°C 49.8°F9.9°C 86% 7.0 mph N11.3 kmh N -- 30.11 in1019.6 mb 0.00 in0.0 mm 0.00 in0.0 mm 0.04 in1.0 mm
08:10 AM 53.7°F12.1°C 49.6°F9.8°C 86% 4.0 mph NNE6.4 kmh NNE -- 30.11 in1019.6 mb 0.00 in0.0 mm 0.00 in0.0 mm 0.04 in1.0 mm
08:05 AM 53.5°F11.9°C 49.6°F9.8°C 87% 4.0 mph N6.4 kmh N -- 30.11 in1019.6 mb 0.00 in0.0 mm 0.00 in0.0 mm 0.04 in1.0 mm
08:00 AM 53.3°F11.8°C 49.5°F9.7°C 87% 1.0 mph N1.6 kmh N -- 30.10 in1019.3 mb 0.00 in0.0 mm 0.00 in0.0 mm 0.04 in1.0 mm
07:55 AM 53.1°F11.7°C 49.3°F9.6°C 87% 3.0 mph N4.8 kmh N -- 30.10 in1019.3 mb 0.00 in0.0 mm 0.00 in0.0 mm 0.04 in1.0 mm
07:50 AM 52.9°F11.6°C 49.1°F9.5°C 87% Calm Calm -- 30.09 in1019.0 mb 0.00 in0.0 mm 0.00 in0.0 mm 0.04 in1.0 mm
07:45 AM 52.8°F11.6°C 49.1°F9.5°C 87% 2.0 mph N3.2 kmh N -- 30.09 in1019.0 mb 0.00 in0.0 mm 0.00 in0.0 mm 0.04 in1.0 mm
07:40 AM 52.7°F11.5°C 48.9°F9.4°C 87% Calm Calm -- 30.10 in1019.3 mb 0.00 in0.0 mm 0.00 in0.0 mm 0.04 in1.0 mm
07:35 AM 52.7°F11.5°C 48.9°F9.4°C 87% 3.0 mph N4.8 kmh N -- 30.09 in1019.0 mb 0.00 in0.0 mm 0.00 in0.0 mm 0.04 in1.0 mm
07:30 AM 52.7°F11.5°C 48.9°F9.4°C 87% 3.0 mph N4.8 kmh N -- 30.09 in1019.0 mb 0.00 in0.0 mm 0.00 in0.0 mm 0.04 in1.0 mm
07:25 AM 52.8°F11.6°C 49.1°F9.5°C 87% 2.0 mph NNE3.2 kmh NNE -- 30.09 in1019.0 mb 0.00 in0.0 mm 0.00 in0.0 mm 0.04 in1.0 mm
07:20 AM 52.9°F11.6°C 49.1°F9.5°C 87% 3.0 mph N4.8 kmh N -- 30.09 in1019.0 mb 0.00 in0.0 mm 0.00 in0.0 mm 0.04 in1.0 mm
07:15 AM 53.1°F11.7°C 48.9°F9.4°C 86% 3.0 mph NNE4.8 kmh NNE -- 30.09 in1019.0 mb 0.00 in0.0 mm 0.00 in0.0 mm 0.04 in1.0 mm
07:10 AM 53.2°F11.8°C 49.5°F9.7°C 87% Calm Calm -- 30.09 in1019.0 mb 0.01 in0.3 mm 0.00 in0.0 mm 0.04 in1.0 mm
07:05 AM 53.3°F11.8°C 49.5°F9.7°C 87% 3.0 mph N4.8 kmh N -- 30.08 in1018.6 mb 0.01 in0.3 mm 0.00 in0.0 mm 0.04 in1.0 mm
07:00 AM 53.3°F11.8°C 49.5°F9.7°C 87% 4.0 mph NNE6.4 kmh NNE -- 30.08 in1018.6 mb 0.01 in0.3 mm 0.00 in0.0 mm 0.04 in1.0 mm
06:55 AM 53.4°F11.9°C 49.6°F9.8°C 87% 4.0 mph N6.4 kmh N -- 30.08 in1018.6 mb 0.01 in0.3 mm 0.00 in0.0 mm 0.04 in1.0 mm
06:50 AM 53.6°F12.0°C 49.5°F9.7°C 86% 2.0 mph N3.2 kmh N -- 30.08 in1018.6 mb 0.01 in0.3 mm 0.00 in0.0 mm 0.04 in1.0 mm
06:45 AM 53.7°F12.1°C 49.6°F9.8°C 86% 4.0 mph N6.4 kmh N -- 30.08 in1018.6 mb 0.01 in0.3 mm 0.00 in0.0 mm 0.04 in1.0 mm
06:40 AM 53.9°F12.2°C 49.8°F9.9°C 86% 3.0 mph N4.8 kmh N -- 30.07 in1018.3 mb 0.01 in0.3 mm 0.00 in0.0 mm 0.04 in1.0 mm
06:35 AM 54.1°F12.3°C 50.0°F10.0°C 86% 4.0 mph NNE6.4 kmh NNE -- 30.07 in1018.3 mb 0.01 in0.3 mm 0.00 in0.0 mm 0.04 in1.0 mm
06:30 AM 54.4°F12.4°C 49.8°F9.9°C 85% 3.0 mph N4.8 kmh N -- 30.07 in1018.3 mb 0.01 in0.3 mm 0.00 in0.0 mm 0.04 in1.0 mm
06:25 AM 54.5°F12.5°C 50.0°F10.0°C 85% 6.0 mph N9.7 kmh N -- 30.07 in1018.3 mb 0.01 in0.3 mm 0.00 in0.0 mm 0.04 in1.0 mm
06:20 AM 54.7°F12.6°C 50.2°F10.1°C 85% 4.0 mph NNE6.4 kmh NNE -- 30.07 in1018.3 mb 0.01 in0.3 mm 0.00 in0.0 mm 0.04 in1.0 mm
06:15 AM 54.9°F12.7°C 50.4°F10.2°C 85% 5.0 mph NNE8.0 kmh NNE -- 30.07 in1018.3 mb 0.01 in0.3 mm 0.12 in3.0 mm 0.04 in1.0 mm
06:10 AM 55.2°F12.9°C 50.7°F10.4°C 85% 5.0 mph NNE8.0 kmh NNE -- 30.06 in1017.9 mb 0.00 in0.0 mm 0.00 in0.0 mm 0.03 in0.8 mm
06:05 AM 55.3°F12.9°C 50.7°F10.4°C 85% 7.0 mph N11.3 kmh N -- 30.06 in1017.9 mb 0.00 in0.0 mm 0.00 in0.0 mm 0.03 in0.8 mm
06:00 AM 55.3°F12.9°C 50.7°F10.4°C 85% 6.0 mph NNE9.7 kmh NNE -- 30.06 in1017.9 mb 0.00 in0.0 mm 0.00 in0.0 mm 0.03 in0.8 mm
05:55 AM 55.5°F13.1°C 51.1°F10.6°C 85% 4.0 mph NNE6.4 kmh NNE -- 30.05 in1017.6 mb 0.00 in0.0 mm 0.00 in0.0 mm 0.03 in0.8 mm
05:50 AM 55.7°F13.2°C 51.3°F10.7°C 85% 7.0 mph NNE11.3 kmh NNE -- 30.05 in1017.6 mb 0.00 in0.0 mm 0.00 in0.0 mm 0.03 in0.8 mm
05:45 AM 55.8°F13.2°C 51.1°F10.6°C 84% 3.0 mph NNE4.8 kmh NNE -- 30.05 in1017.6 mb 0.00 in0.0 mm 0.00 in0.0 mm 0.03 in0.8 mm
05:40 AM 56.0°F13.3°C 51.3°F10.7°C 84% 2.0 mph N3.2 kmh N -- 30.05 in1017.6 mb 0.00 in0.0 mm 0.00 in0.0 mm 0.03 in0.8 mm
05:35 AM 56.2°F13.4°C 51.4°F10.8°C 84% 3.0 mph N4.8 kmh N -- 30.05 in1017.6 mb 0.00 in0.0 mm 0.00 in0.0 mm 0.03 in0.8 mm
05:30 AM 56.3°F13.5°C 51.4°F10.8°C 84% 4.0 mph NNE6.4 kmh NNE -- 30.05 in1017.6 mb 0.00 in0.0 mm 0.00 in0.0 mm 0.03 in0.8 mm
05:25 AM 56.5°F13.6°C 51.4°F10.8°C 83% 3.0 mph NNE4.8 kmh NNE -- 30.05 in1017.6 mb 0.00 in0.0 mm 0.00 in0.0 mm 0.03 in0.8 mm
05:20 AM 56.7°F13.7°C 51.6°F10.9°C 83% 3.0 mph NNE4.8 kmh NNE -- 30.05 in1017.6 mb 0.00 in0.0 mm 0.00 in0.0 mm 0.03 in0.8 mm
05:15 AM 56.8°F13.8°C 51.8°F11.0°C 83% 3.0 mph N4.8 kmh N -- 30.05 in1017.6 mb 0.00 in0.0 mm 0.00 in0.0 mm 0.03 in0.8 mm
05:10 AM 57.0°F13.9°C 52.0°F11.1°C 83% 6.0 mph NNE9.7 kmh NNE -- 30.05 in1017.6 mb 0.00 in0.0 mm 0.00 in0.0 mm 0.03 in0.8 mm
05:05 AM 57.0°F13.9°C 52.0°F11.1°C 83% 5.0 mph N8.0 kmh N -- 30.04 in1017.3 mb 0.00 in0.0 mm 0.00 in0.0 mm 0.03 in0.8 mm
05:00 AM 57.3°F14.1°C 52.5°F11.4°C 84% 4.0 mph NNE6.4 kmh NNE -- 30.04 in1017.3 mb 0.00 in0.0 mm 0.00 in0.0 mm 0.03 in0.8 mm
04:55 AM 57.5°F14.2°C 52.5°F11.4°C 83% 5.0 mph NE8.0 kmh NE -- 30.04 in1017.3 mb 0.00 in0.0 mm 0.00 in0.0 mm 0.03 in0.8 mm
04:50 AM 57.6°F14.2°C 52.5°F11.4°C 83% 5.0 mph NE8.0 kmh NE -- 30.03 in1016.9 mb 0.00 in0.0 mm 0.00 in0.0 mm 0.03 in0.8 mm
04:45 AM 57.7°F14.3°C 52.9°F11.6°C 84% 4.0 mph NE6.4 kmh NE -- 30.03 in1016.9 mb 0.00 in0.0 mm 0.00 in0.0 mm 0.03 in0.8 mm
04:40 AM 57.7°F14.3°C 52.9°F11.6°C 84% 2.0 mph NNE3.2 kmh NNE -- 30.02 in1016.6 mb 0.00 in0.0 mm 0.00 in0.0 mm 0.03 in0.8 mm
04:35 AM 57.6°F14.2°C 52.7°F11.5°C 84% 2.0 mph NE3.2 kmh NE -- 30.02 in1016.6 mb 0.00 in0.0 mm 0.00 in0.0 mm 0.03 in0.8 mm
04:30 AM 57.6°F14.2°C 52.7°F11.5°C 84% 3.0 mph NNE4.8 kmh NNE -- 30.02 in1016.6 mb 0.00 in0.0 mm 0.00 in0.0 mm 0.03 in0.8 mm
04:25 AM 57.7°F14.3°C 52.9°F11.6°C 84% 4.0 mph NNE6.4 kmh NNE -- 30.02 in1016.6 mb 0.00 in0.0 mm 0.00 in0.0 mm 0.03 in0.8 mm
04:20 AM 57.9°F14.4°C 53.1°F11.7°C 84% 1.0 mph NNE1.6 kmh NNE -- 30.02 in1016.6 mb 0.00 in0.0 mm 0.00 in0.0 mm 0.03 in0.8 mm
04:15 AM 58.0°F14.4°C 53.1°F11.7°C 84% 3.0 mph NNE4.8 kmh NNE -- 30.01 in1016.3 mb 0.00 in0.0 mm 0.00 in0.0 mm 0.03 in0.8 mm
04:10 AM 58.0°F14.4°C 53.1°F11.7°C 84% 2.0 mph NE3.2 kmh NE -- 30.01 in1016.3 mb 0.00 in0.0 mm 0.00 in0.0 mm 0.03 in0.8 mm
04:05 AM 58.1°F14.5°C 53.2°F11.8°C 84% 3.0 mph NE4.8 kmh NE -- 30.00 in1015.9 mb 0.00 in0.0 mm 0.00 in0.0 mm 0.03 in0.8 mm
04:00 AM 58.2°F14.6°C 53.4°F11.9°C 84% 3.0 mph NNE4.8 kmh NNE -- 30.00 in1015.9 mb 0.00 in0.0 mm 0.00 in0.0 mm 0.03 in0.8 mm
03:55 AM 58.3°F14.6°C 53.4°F11.9°C 84% 3.0 mph N4.8 kmh N -- 30.00 in1015.9 mb 0.00 in0.0 mm 0.00 in0.0 mm 0.03 in0.8 mm
03:50 AM 58.5°F14.7°C 53.6°F12.0°C 84% 2.0 mph NE3.2 kmh NE -- 29.99 in1015.6 mb 0.00 in0.0 mm 0.00 in0.0 mm 0.03 in0.8 mm
03:45 AM 58.6°F14.8°C 53.8°F12.1°C 84% 3.0 mph N4.8 kmh N -- 30.00 in1015.9 mb 0.01 in0.3 mm 0.00 in0.0 mm 0.03 in0.8 mm
03:40 AM 58.9°F14.9°C 54.0°F12.2°C 84% 3.0 mph NNE4.8 kmh NNE -- 30.00 in1015.9 mb 0.01 in0.3 mm 0.00 in0.0 mm 0.03 in0.8 mm
03:35 AM 59.0°F15.0°C 54.1°F12.3°C 84% 6.0 mph NNE9.7 kmh NNE -- 29.99 in1015.6 mb 0.01 in0.3 mm 0.00 in0.0 mm 0.03 in0.8 mm
03:30 AM 59.1°F15.1°C 54.7°F12.6°C 85% 4.0 mph N6.4 kmh N -- 29.99 in1015.6 mb 0.01 in0.3 mm 0.00 in0.0 mm 0.03 in0.8 mm
03:25 AM 59.4°F15.2°C 54.9°F12.7°C 85% 3.0 mph N4.8 kmh N -- 29.99 in1015.6 mb 0.01 in0.3 mm 0.00 in0.0 mm 0.03 in0.8 mm
03:20 AM 59.5°F15.3°C 55.0°F12.8°C 85% 8.0 mph N12.9 kmh N -- 29.99 in1015.6 mb 0.01 in0.3 mm 0.00 in0.0 mm 0.03 in0.8 mm
03:15 AM 59.6°F15.3°C 55.0°F12.8°C 85% 5.0 mph N8.0 kmh N -- 29.99 in1015.6 mb 0.01 in0.3 mm 0.00 in0.0 mm 0.03 in0.8 mm
03:10 AM 59.7°F15.4°C 55.6°F13.1°C 86% 8.0 mph NNE12.9 kmh NNE -- 29.99 in1015.6 mb 0.01 in0.3 mm 0.00 in0.0 mm 0.03 in0.8 mm
03:05 AM 59.8°F15.4°C 55.6°F13.1°C 86% 7.0 mph N11.3 kmh N -- 29.99 in1015.6 mb 0.01 in0.3 mm 0.00 in0.0 mm 0.03 in0.8 mm
03:00 AM 59.9°F15.5°C 55.8°F13.2°C 86% 6.0 mph NNE9.7 kmh NNE -- 29.98 in1015.2 mb 0.01 in0.3 mm 0.00 in0.0 mm 0.03 in0.8 mm
02:55 AM 60.2°F15.7°C 56.1°F13.4°C 86% 5.0 mph N8.0 kmh N -- 29.98 in1015.2 mb 0.01 in0.3 mm 0.00 in0.0 mm 0.03 in0.8 mm
02:50 AM 60.3°F15.7°C 56.3°F13.5°C 87% 2.0 mph N3.2 kmh N -- 29.99 in1015.6 mb 0.01 in0.3 mm 0.12 in3.0 mm 0.03 in0.8 mm
02:45 AM 60.4°F15.8°C 56.5°F13.6°C 87% 5.0 mph N8.0 kmh N -- 29.99 in1015.6 mb 0.00 in0.0 mm 0.00 in0.0 mm 0.02 in0.5 mm
02:40 AM 60.5°F15.8°C 56.5°F13.6°C 87% 5.0 mph NNW8.0 kmh NNW -- 29.99 in1015.6 mb 0.00 in0.0 mm 0.00 in0.0 mm 0.02 in0.5 mm
02:35 AM 60.7°F15.9°C 57.0°F13.9°C 88% 6.0 mph N9.7 kmh N -- 29.99 in1015.6 mb 0.00 in0.0 mm 0.00 in0.0 mm 0.02 in0.5 mm
02:30 AM 60.9°F16.1°C 57.4°F14.1°C 88% 2.0 mph N3.2 kmh N -- 29.99 in1015.6 mb 0.00 in0.0 mm 0.00 in0.0 mm 0.02 in0.5 mm
02:25 AM 61.1°F16.2°C 57.6°F14.2°C 88% 3.0 mph NNW4.8 kmh NNW -- 29.99 in1015.6 mb 0.00 in0.0 mm 0.00 in0.0 mm 0.02 in0.5 mm
02:20 AM 61.3°F16.3°C 57.7°F14.3°C 88% 4.0 mph NNE6.4 kmh NNE -- 29.99 in1015.6 mb 0.00 in0.0 mm 0.00 in0.0 mm 0.02 in0.5 mm
02:15 AM 61.6°F16.4°C 57.9°F14.4°C 88% 6.0 mph NNE9.7 kmh NNE -- 29.99 in1015.6 mb 0.01 in0.3 mm 0.00 in0.0 mm 0.02 in0.5 mm
02:10 AM 61.8°F16.6°C 58.3°F14.6°C 88% 9.0 mph NNE14.5 kmh NNE -- 29.99 in1015.6 mb 0.01 in0.3 mm 0.00 in0.0 mm 0.02 in0.5 mm
02:05 AM 62.1°F16.7°C 58.5°F14.7°C 88% 6.0 mph N9.7 kmh N -- 29.99 in1015.6 mb 0.01 in0.3 mm 0.00 in0.0 mm 0.02 in0.5 mm
02:00 AM 62.3°F16.8°C 59.0°F15.0°C 89% 6.0 mph N9.7 kmh N -- 29.99 in1015.6 mb 0.01 in0.3 mm 0.00 in0.0 mm 0.02 in0.5 mm
01:55 AM 62.7°F17.1°C 60.1°F15.6°C 91% 4.0 mph N6.4 kmh N -- 29.99 in1015.6 mb 0.01 in0.3 mm 0.00 in0.0 mm 0.02 in0.5 mm
01:50 AM 63.1°F17.3°C 60.4°F15.8°C 91% 4.0 mph N6.4 kmh N -- 30.00 in1015.9 mb 0.01 in0.3 mm 0.00 in0.0 mm 0.02 in0.5 mm
01:45 AM 63.4°F17.4°C 61.0°F16.1°C 92% 9.0 mph NNW14.5 kmh NNW -- 30.00 in1015.9 mb 0.01 in0.3 mm 0.00 in0.0 mm 0.02 in0.5 mm
01:40 AM 63.7°F17.6°C 61.3°F16.3°C 92% 6.0 mph NNE9.7 kmh NNE -- 30.00 in1015.9 mb 0.01 in0.3 mm 0.00 in0.0 mm 0.02 in0.5 mm
01:35 AM 63.9°F17.7°C 61.9°F16.6°C 93% 5.0 mph NNW8.0 kmh NNW -- 30.00 in1015.9 mb 0.01 in0.3 mm 0.00 in0.0 mm 0.02 in0.5 mm
01:30 AM 64.1°F17.8°C 61.7°F16.5°C 92% 2.0 mph N3.2 kmh N -- 30.00 in1015.9 mb 0.01 in0.3 mm 0.00 in0.0 mm 0.02 in0.5 mm
01:25 AM 64.3°F17.9°C 62.2°F16.8°C 93% 3.0 mph NW4.8 kmh NW -- 30.00 in1015.9 mb 0.01 in0.3 mm 0.00 in0.0 mm 0.02 in0.5 mm
01:20 AM 64.7°F18.2°C 62.6°F17.0°C 93% 4.0 mph N6.4 kmh N -- 29.99 in1015.6 mb 0.01 in0.3 mm 0.00 in0.0 mm 0.02 in0.5 mm
01:15 AM 65.0°F18.3°C 62.8°F17.1°C 93% 4.0 mph N6.4 kmh N -- 29.99 in1015.6 mb 0.01 in0.3 mm 0.12 in3.0 mm 0.02 in0.5 mm
01:10 AM 65.1°F18.4°C 63.0°F17.2°C 93% 1.0 mph W1.6 kmh W -- 29.99 in1015.6 mb 0.00 in0.0 mm 0.00 in0.0 mm 0.01 in0.3 mm
01:05 AM 65.1°F18.4°C 63.0°F17.2°C 93% Calm Calm -- 30.00 in1015.9 mb 0.00 in0.0 mm 0.00 in0.0 mm 0.01 in0.3 mm
01:00 AM 65.1°F18.4°C 63.0°F17.2°C 93% 2.0 mph NW3.2 kmh NW -- 30.00 in1015.9 mb 0.01 in0.3 mm 0.00 in0.0 mm 0.01 in0.3 mm
12:55 AM 65.0°F18.3°C 62.8°F17.1°C 93% 5.0 mph NW8.0 kmh NW -- 29.98 in1015.2 mb 0.01 in0.3 mm 0.00 in0.0 mm 0.01 in0.3 mm
12:50 AM 65.2°F18.4°C 63.0°F17.2°C 93% 3.0 mph ESE4.8 kmh ESE -- 29.96 in1014.6 mb 0.01 in0.3 mm 0.00 in0.0 mm 0.01 in0.3 mm
12:45 AM 65.2°F18.4°C 63.0°F17.2°C 93% Calm Calm -- 29.98 in1015.2 mb 0.01 in0.3 mm 0.00 in0.0 mm 0.01 in0.3 mm
12:40 AM 65.3°F18.5°C 63.1°F17.3°C 93% Calm Calm -- 29.98 in1015.2 mb 0.01 in0.3 mm 0.00 in0.0 mm 0.01 in0.3 mm
12:35 AM 65.3°F18.5°C 63.1°F17.3°C 93% Calm Calm -- 29.97 in1014.9 mb 0.01 in0.3 mm 0.00 in0.0 mm 0.01 in0.3 mm
12:30 AM 65.4°F18.6°C 63.3°F17.4°C 93% 2.0 mph N3.2 kmh N -- 29.96 in1014.6 mb 0.01 in0.3 mm 0.00 in0.0 mm 0.01 in0.3 mm
12:25 AM 65.4°F18.6°C 63.1°F17.3°C 92% Calm Calm -- 29.96 in1014.6 mb 0.01 in0.3 mm 0.00 in0.0 mm 0.01 in0.3 mm
12:20 AM 65.5°F18.6°C 63.1°F17.3°C 92% Calm Calm -- 29.96 in1014.6 mb 0.01 in0.3 mm 0.00 in0.0 mm 0.01 in0.3 mm
12:15 AM 65.6°F18.7°C 63.3°F17.4°C 92% 1.0 mph NNW1.6 kmh NNW -- 29.97 in1014.9 mb 0.01 in0.3 mm 0.00 in0.0 mm 0.01 in0.3 mm
12:10 AM 65.8°F18.8°C 63.5°F17.5°C 92% 1.0 mph NW1.6 kmh NW -- 29.97 in1014.9 mb 0.02 in0.5 mm 0.00 in0.0 mm 0.01 in0.3 mm
12:05 AM 65.9°F18.8°C 63.5°F17.5°C 92% Calm Calm -- 29.97 in1014.9 mb 0.02 in0.5 mm 0.12 in3.0 mm 0.01 in0.3 mm
12:00 AM 65.9°F18.8°C 63.7°F17.6°C 93% 3.0 mph NW4.8 kmh NW -- 29.98 in1015.2 mb 0.01 in0.3 mm 0.00 in0.0 mm 0.01 in0.3 mm